createdAt,value
2018-02-21T00:01:06.170Z,29.00
2018-02-21T00:03:33.762Z,27.73
2018-02-21T00:06:01.383Z,27.67
2018-02-21T00:08:29.202Z,30.35
2018-02-21T00:10:56.910Z,30.70
2018-02-21T00:13:24.609Z,28.62
2018-02-21T00:15:52.239Z,29.87
2018-02-21T00:18:19.835Z,27.10
2018-02-21T00:20:47.483Z,28.60
2018-02-21T00:23:15.083Z,28.40
2018-02-21T00:25:42.915Z,28.70
2018-02-21T00:28:10.524Z,29.90
2018-02-21T00:30:38.222Z,29.15
2018-02-21T00:33:05.891Z,28.80
2018-02-21T00:35:33.583Z,27.77
2018-02-21T00:38:01.187Z,30.63
2018-02-21T00:40:28.814Z,26.63
2018-02-21T00:42:56.479Z,28.95
2018-02-21T00:45:24.174Z,31.70
2018-02-21T00:47:51.760Z,27.47
2018-02-21T00:50:19.522Z,29.93
2018-02-21T00:52:47.119Z,29.43
2018-02-21T00:55:14.737Z,29.23
2018-02-21T00:57:42.344Z,28.70
2018-02-21T01:00:10.051Z,27.40
2018-02-21T01:02:37.680Z,28.07
2018-02-21T01:05:05.343Z,27.73
2018-02-21T01:07:32.925Z,29.83
2018-02-21T01:10:00.642Z,28.83
2018-02-21T01:12:28.314Z,26.92
2018-02-21T01:14:56.006Z,28.15
2018-02-21T01:17:23.739Z,28.52
2018-02-21T01:19:51.570Z,28.87
2018-02-21T01:22:19.242Z,29.00
2018-02-21T01:24:47.107Z,28.30
2018-02-21T01:27:14.781Z,25.85
2018-02-21T01:29:42.510Z,29.80
2018-02-21T01:32:10.105Z,27.50
2018-02-21T01:34:37.726Z,30.03
2018-02-21T01:37:05.372Z,27.30
2018-02-21T01:39:33.082Z,27.80
2018-02-21T01:42:00.684Z,27.40
2018-02-21T01:44:28.390Z,27.77
2018-02-21T01:46:56.065Z,29.08
2018-02-21T01:49:23.857Z,29.30
2018-02-21T01:51:51.525Z,29.02
2018-02-21T01:54:19.281Z,30.73
2018-02-21T01:56:46.954Z,26.60
2018-02-21T01:59:14.673Z,30.48
2018-02-21T02:01:42.412Z,27.50
2018-02-21T02:04:10.113Z,28.85
2018-02-21T02:06:37.795Z,26.92
2018-02-21T02:09:05.512Z,29.85
2018-02-21T02:11:33.177Z,25.67
2018-02-21T02:14:00.902Z,27.58
2018-02-21T02:16:28.567Z,27.60
2018-02-21T02:18:56.291Z,27.15
2018-02-21T02:21:23.973Z,27.83
2018-02-21T02:23:51.667Z,27.15
2018-02-21T02:26:19.402Z,29.27
2018-02-21T02:28:47.102Z,26.08
2018-02-21T02:31:14.781Z,28.05
2018-02-21T02:33:42.487Z,27.70
2018-02-21T02:36:10.160Z,26.20
2018-02-21T02:52:04.786Z,23.45
2018-02-21T02:54:32.503Z,23.65
2018-02-21T02:57:00.189Z,25.70
2018-02-21T02:59:27.885Z,27.67
2018-02-21T03:01:55.558Z,26.08
2018-02-21T03:04:23.263Z,25.70
2018-02-21T03:06:51.057Z,25.08
2018-02-21T03:09:18.730Z,27.30
2018-02-21T03:11:46.430Z,27.73
2018-02-21T03:14:14.094Z,25.15
2018-02-21T03:16:41.928Z,27.52
2018-02-21T03:19:09.606Z,26.95
2018-02-21T03:21:37.294Z,26.25
2018-02-21T03:24:04.981Z,27.62
2018-02-21T03:26:32.822Z,27.30
2018-02-21T03:29:00.502Z,25.98
2018-02-21T03:31:28.215Z,24.63
2018-02-21T03:33:55.954Z,27.17
2018-02-21T03:36:23.627Z,26.85
2018-02-21T03:38:51.446Z,25.15
2018-02-21T03:41:19.123Z,23.92
2018-02-21T03:43:46.882Z,25.17
2018-02-21T03:46:14.624Z,25.33
2018-02-21T03:48:42.323Z,25.77
2018-02-21T03:51:10.006Z,25.90
2018-02-21T03:53:37.712Z,23.27
2018-02-21T03:56:05.382Z,24.80
2018-02-21T03:58:33.098Z,22.58
2018-02-21T04:01:00.771Z,24.70
2018-02-21T04:03:28.512Z,23.30
2018-02-21T04:05:56.186Z,26.27
2018-02-21T04:08:23.893Z,24.30
2018-02-21T04:10:51.494Z,22.70
2018-02-21T04:13:19.386Z,24.67
2018-02-21T04:15:47.070Z,24.00
2018-02-21T04:18:14.699Z,24.90
2018-02-21T04:20:42.370Z,23.52
2018-02-21T04:23:10.150Z,24.95
2018-02-21T04:25:37.878Z,25.83
2018-02-21T04:28:05.594Z,24.90
2018-02-21T04:30:33.281Z,26.52
2018-02-21T04:33:01.124Z,26.35
2018-02-21T04:35:28.798Z,26.30
2018-02-21T04:37:56.894Z,26.85
2018-02-21T04:40:24.567Z,25.77
2018-02-21T04:42:52.326Z,26.75
2018-02-21T04:45:19.989Z,26.65
2018-02-21T04:47:47.766Z,28.87
2018-02-21T04:50:15.452Z,27.23
2018-02-21T04:52:43.234Z,33.90
2018-02-21T05:08:33.802Z,31.75
2018-02-21T05:11:01.509Z,29.08
2018-02-21T05:13:29.209Z,30.25
2018-02-21T05:15:56.938Z,28.75
2018-02-21T05:18:24.635Z,29.80
2018-02-21T05:20:52.315Z,28.08
2018-02-21T05:23:20.010Z,29.73
2018-02-21T05:25:47.662Z,28.90
2018-02-21T05:28:15.342Z,29.55
2018-02-21T05:30:43.126Z,27.77
2018-02-21T05:33:10.799Z,29.27
2018-02-21T05:35:38.499Z,28.83
2018-02-21T05:38:06.239Z,26.08
2018-02-21T05:40:33.978Z,26.33
2018-02-21T05:43:01.694Z,38.72
2018-02-21T05:45:29.422Z,30.50
2018-02-21T05:47:57.740Z,29.52
2018-02-21T05:50:25.429Z,30.33
2018-02-21T05:52:53.126Z,28.42
2018-02-21T05:55:20.801Z,27.17
2018-02-21T05:57:48.499Z,23.25
2018-02-21T06:00:16.178Z,26.58
2018-02-21T06:02:43.849Z,27.17
2018-02-21T06:05:11.451Z,24.00
2018-02-21T06:07:39.082Z,26.27
2018-02-21T06:10:06.701Z,25.77
2018-02-21T06:12:34.286Z,26.80
2018-02-21T06:15:01.947Z,28.60
2018-02-21T06:17:29.550Z,29.07
2018-02-21T06:19:57.182Z,29.60
2018-02-21T06:22:25.008Z,29.40
2018-02-21T06:24:52.619Z,27.67
2018-02-21T06:27:20.214Z,29.40
2018-02-21T06:29:47.855Z,31.00
2018-02-21T06:32:15.549Z,30.87
2018-02-21T06:34:43.166Z,31.07
2018-02-21T06:37:10.787Z,29.77
2018-02-21T06:39:38.386Z,30.53
2018-02-21T06:42:06.013Z,29.27
2018-02-21T06:44:33.639Z,29.57
2018-02-21T06:47:01.232Z,29.83
2018-02-21T06:49:28.867Z,30.63
2018-02-21T06:51:56.454Z,32.50
2018-02-21T06:54:24.096Z,30.93
2018-02-21T06:56:51.687Z,30.80
2018-02-21T06:59:19.299Z,32.00
2018-02-21T07:01:46.974Z,29.13
2018-02-21T07:04:14.588Z,30.70
2018-02-21T07:06:42.143Z,30.10
2018-02-21T07:09:09.846Z,32.92
2018-02-21T07:11:37.518Z,33.58
2018-02-21T07:14:05.142Z,33.27
2018-02-21T07:16:32.853Z,33.00
2018-02-21T07:19:00.549Z,30.48
2018-02-21T07:21:28.296Z,34.30
2018-02-21T07:23:56.153Z,32.38
2018-02-21T07:26:23.838Z,35.65
2018-02-21T07:28:51.596Z,34.45
2018-02-21T07:31:19.219Z,34.25
2018-02-21T07:33:46.925Z,33.05
2018-02-21T07:36:14.611Z,33.85
2018-02-21T07:38:42.319Z,36.17
2018-02-21T07:41:10.020Z,38.20
2018-02-21T07:43:37.728Z,35.05
2018-02-21T07:46:05.427Z,34.28
2018-02-21T07:48:33.138Z,35.03
2018-02-21T07:51:00.850Z,35.88
2018-02-21T07:53:28.503Z,37.13
2018-02-21T07:55:56.210Z,34.78
2018-02-21T07:58:23.891Z,36.30
2018-02-21T08:00:51.583Z,37.33
2018-02-21T08:03:19.274Z,37.03
2018-02-21T08:05:47.017Z,37.53
2018-02-21T08:08:14.690Z,37.35
2018-02-21T08:10:42.445Z,37.47
2018-02-21T08:13:10.138Z,39.55
2018-02-21T08:15:37.850Z,39.10
2018-02-21T08:18:05.530Z,37.60
2018-02-21T08:20:33.405Z,39.50
2018-02-21T08:23:01.077Z,39.63
2018-02-21T08:25:28.794Z,36.72
2018-02-21T08:27:56.938Z,40.75
2018-02-21T08:30:24.694Z,37.00
2018-02-21T08:32:52.370Z,40.42
2018-02-21T08:35:20.074Z,41.95
2018-02-21T08:37:47.761Z,40.60
2018-02-21T08:40:15.514Z,37.85
2018-02-21T08:42:43.186Z,40.35
2018-02-21T08:45:11.063Z,39.55
2018-02-21T08:47:38.733Z,38.50
2018-02-21T08:50:06.449Z,39.40
2018-02-21T08:52:34.285Z,38.30
2018-02-21T08:55:02.027Z,41.28
2018-02-21T08:57:29.715Z,41.33
2018-02-21T08:59:57.546Z,41.33
2018-02-21T09:02:25.218Z,39.65
2018-02-21T09:04:52.942Z,41.80
2018-02-21T09:07:20.627Z,39.97
2018-02-21T09:09:48.413Z,38.05
2018-02-21T09:12:16.095Z,38.40
2018-02-21T09:14:43.794Z,43.55
2018-02-21T09:17:11.472Z,43.05
2018-02-21T09:19:39.179Z,40.95
2018-02-21T09:22:06.863Z,39.78
2018-02-21T09:24:34.558Z,41.10
2018-02-21T09:27:02.165Z,38.90
2018-02-21T09:29:29.866Z,44.70
2018-02-21T09:31:57.558Z,44.85
2018-02-21T09:34:25.183Z,41.90
2018-02-21T09:36:52.778Z,45.37
2018-02-21T09:39:20.501Z,40.05
2018-02-21T09:41:48.174Z,42.13
2018-02-21T09:44:15.826Z,42.00
2018-02-21T09:46:43.574Z,39.85
2018-02-21T09:49:11.447Z,40.20
2018-02-21T09:51:39.174Z,40.40
2018-02-21T09:54:06.823Z,41.47
2018-02-21T09:56:34.462Z,42.57
2018-02-21T09:59:02.074Z,41.53
2018-02-21T10:01:29.699Z,38.63
2018-02-21T10:03:57.482Z,40.80
2018-02-21T10:06:25.111Z,41.27
2018-02-21T10:08:52.710Z,41.20
2018-02-21T10:11:20.342Z,40.23
2018-02-21T10:13:47.950Z,36.60
2018-02-21T10:16:15.605Z,36.87
2018-02-21T10:18:43.205Z,35.73
2018-02-21T10:21:10.822Z,34.23
2018-02-21T10:23:38.451Z,33.60
2018-02-21T10:26:06.075Z,29.57
2018-02-21T10:28:33.682Z,31.80
2018-02-21T10:31:01.316Z,30.67
2018-02-21T10:33:28.924Z,31.70
2018-02-21T10:35:56.563Z,32.17
2018-02-21T10:38:24.176Z,32.23
2018-02-21T10:40:51.777Z,30.47
2018-02-21T10:43:19.510Z,29.10
2018-02-21T10:45:47.137Z,28.77
2018-02-21T10:48:14.746Z,29.27
2018-02-21T10:50:42.377Z,30.27
2018-02-21T10:53:10.050Z,26.97
2018-02-21T10:55:37.767Z,27.80
2018-02-21T10:58:05.402Z,27.13
2018-02-21T11:00:38.587Z,29.17
2018-02-21T11:03:06.202Z,29.73
2018-02-21T11:05:33.801Z,29.10
2018-02-21T11:08:05.210Z,27.57
2018-02-21T11:10:32.809Z,26.00
2018-02-21T11:13:00.437Z,26.93
2018-02-21T11:15:28.039Z,26.23
2018-02-21T11:17:55.998Z,30.10
2018-02-21T11:20:23.605Z,28.33
2018-02-21T11:22:51.244Z,26.50
2018-02-21T11:25:18.835Z,27.47
2018-02-21T11:27:46.454Z,25.37
2018-02-21T11:30:14.052Z,25.67
2018-02-21T11:32:41.690Z,26.40
2018-02-21T11:35:09.284Z,26.90
2018-02-21T11:37:36.988Z,26.20
2018-02-21T11:40:04.583Z,24.80
2018-02-21T11:42:32.250Z,25.30
2018-02-21T11:44:59.867Z,22.13
2018-02-21T11:47:27.493Z,21.87
2018-02-21T11:49:55.099Z,20.83
2018-02-21T11:52:22.690Z,24.70
2018-02-21T11:54:50.357Z,24.60
2018-02-21T11:57:17.983Z,24.10
2018-02-21T11:59:45.625Z,25.47
2018-02-21T12:02:13.230Z,24.63
2018-02-21T12:04:40.862Z,20.70
2018-02-21T12:07:08.471Z,21.63
2018-02-21T12:09:36.101Z,23.67
2018-02-21T12:12:03.809Z,26.47
2018-02-21T12:14:31.427Z,23.17
2018-02-21T12:16:59.130Z,22.17
2018-02-21T12:19:26.778Z,21.57
2018-02-21T12:21:54.431Z,24.50
2018-02-21T12:24:22.062Z,23.50
2018-02-21T12:26:49.679Z,22.07
2018-02-21T12:29:17.326Z,21.40
2018-02-21T12:31:44.970Z,20.30
2018-02-21T12:34:12.619Z,19.83
2018-02-21T12:36:40.235Z,21.80
2018-02-21T12:52:34.702Z,16.00
2018-02-21T12:55:02.356Z,18.07
2018-02-21T12:57:29.954Z,17.93
2018-02-21T12:59:57.611Z,19.60
2018-02-21T13:02:25.284Z,28.20
2018-02-21T13:04:52.934Z,28.50
2018-02-21T13:07:20.528Z,24.40
2018-02-21T13:09:48.162Z,27.60
2018-02-21T13:12:15.811Z,28.27
2018-02-21T13:14:43.497Z,25.47
2018-02-21T13:17:11.107Z,24.67
2018-02-21T13:19:38.729Z,23.73
2018-02-21T13:22:06.337Z,23.50
2018-02-21T13:24:33.974Z,23.50
2018-02-21T13:27:01.579Z,21.60
2018-02-21T13:29:29.222Z,23.30
2018-02-21T13:31:56.819Z,22.80
2018-02-21T13:34:24.470Z,20.37
2018-02-21T13:36:52.087Z,19.27
2018-02-21T13:39:19.698Z,19.00
2018-02-21T13:41:47.351Z,19.67
2018-02-21T13:44:14.977Z,21.20
2018-02-21T13:46:42.613Z,18.80
2018-02-21T13:49:10.299Z,18.30
2018-02-21T13:51:37.898Z,17.60
2018-02-21T13:54:05.687Z,17.37
2018-02-21T13:56:33.313Z,18.37
2018-02-21T13:59:00.970Z,17.77
2018-02-21T14:01:28.655Z,19.80
2018-02-21T14:03:56.298Z,18.20
2018-02-21T14:06:23.915Z,17.60
2018-02-21T14:08:51.555Z,19.37
2018-02-21T14:11:19.154Z,20.30
2018-02-21T14:13:46.787Z,16.73
2018-02-21T14:16:14.410Z,16.47
2018-02-21T14:18:42.043Z,16.10
2018-02-21T14:21:09.630Z,18.03
2018-02-21T14:23:37.386Z,14.97
2018-02-21T14:26:04.974Z,17.60
2018-02-21T14:28:32.611Z,15.67
2018-02-21T14:31:00.275Z,16.63
2018-02-21T14:33:28.020Z,15.80
2018-02-21T14:35:55.680Z,16.60
2018-02-21T14:38:23.346Z,16.20
2018-02-21T14:40:50.986Z,15.87
2018-02-21T14:43:18.623Z,16.63
2018-02-21T14:45:46.234Z,15.90
2018-02-21T14:48:13.878Z,16.17
2018-02-21T14:50:41.686Z,14.83
2018-02-21T14:53:09.378Z,13.70
2018-02-21T14:55:36.991Z,16.77
2018-02-21T14:58:04.647Z,18.30
2018-02-21T15:00:32.277Z,16.47
2018-02-21T15:02:59.930Z,15.10
2018-02-21T15:05:27.583Z,16.67
2018-02-21T15:07:55.190Z,15.47
2018-02-21T15:10:22.827Z,21.20
2018-02-21T15:12:50.439Z,14.87
2018-02-21T15:15:18.091Z,16.17
2018-02-21T15:17:45.694Z,15.70
2018-02-21T15:20:13.327Z,15.33
2018-02-21T15:22:40.939Z,15.37
2018-02-21T15:25:08.566Z,16.83
2018-02-21T15:27:36.162Z,15.33
2018-02-21T15:30:03.892Z,16.00
2018-02-21T15:32:31.494Z,16.57
2018-02-21T15:34:59.151Z,16.83
2018-02-21T15:37:26.738Z,17.93
2018-02-21T15:39:54.372Z,17.30
2018-02-21T15:42:21.990Z,17.47
2018-02-21T15:44:49.625Z,18.90
2018-02-21T15:47:17.233Z,19.17
2018-02-21T15:49:44.831Z,19.90
2018-02-21T15:52:12.467Z,19.80
2018-02-21T15:54:40.081Z,19.33
2018-02-21T15:57:07.756Z,21.97
2018-02-21T15:59:35.363Z,21.43
2018-02-21T16:02:03.024Z,20.30
2018-02-21T16:04:30.783Z,20.67
2018-02-21T16:06:58.387Z,21.47
2018-02-21T16:09:26.054Z,22.30
2018-02-21T16:11:53.659Z,19.43
2018-02-21T16:14:21.295Z,20.83
2018-02-21T16:16:48.910Z,21.33
2018-02-21T16:19:16.587Z,21.83
2018-02-21T16:21:44.219Z,19.87
2018-02-21T16:24:11.870Z,17.87
2018-02-21T16:26:39.460Z,17.67
2018-02-21T16:29:07.052Z,20.40
2018-02-21T16:31:34.778Z,20.70
2018-02-21T16:34:02.371Z,22.70
2018-02-21T16:36:29.998Z,20.47
2018-02-21T16:38:57.610Z,22.93
2018-02-21T16:41:25.365Z,20.70
2018-02-21T16:43:52.951Z,20.30
2018-02-21T16:46:20.596Z,20.93
2018-02-21T16:48:48.194Z,19.23
2018-02-21T16:51:15.834Z,20.87
2018-02-21T16:53:43.440Z,21.60
2018-02-21T16:56:11.166Z,20.37
2018-02-21T16:58:38.767Z,21.03
2018-02-21T17:01:06.464Z,21.47
2018-02-21T17:03:34.134Z,18.70
2018-02-21T17:06:01.771Z,19.80
2018-02-21T17:08:29.363Z,21.27
2018-02-21T17:10:56.999Z,16.60
2018-02-21T17:13:24.614Z,16.53
2018-02-21T17:15:52.239Z,16.87
2018-02-21T17:18:19.830Z,14.40
2018-02-21T17:20:47.599Z,16.37
2018-02-21T17:23:15.207Z,16.87
2018-02-21T17:25:42.854Z,14.67
2018-02-21T17:28:10.458Z,16.47
2018-02-21T17:30:38.107Z,16.07
2018-02-21T17:33:05.702Z,16.23
2018-02-21T17:35:33.336Z,16.93
2018-02-21T17:38:00.951Z,16.60
2018-02-21T17:40:28.576Z,16.33
2018-02-21T17:42:56.219Z,16.40
2018-02-21T17:45:23.846Z,15.67
2018-02-21T17:47:51.460Z,16.43
2018-02-21T17:50:19.092Z,16.60
2018-02-21T17:52:46.694Z,15.37
2018-02-21T17:55:14.347Z,16.27
2018-02-21T17:57:41.950Z,19.50
2018-02-21T18:00:09.630Z,36.40
2018-02-21T18:02:37.220Z,20.73
2018-02-21T18:05:04.863Z,17.97
2018-02-21T18:07:32.478Z,16.90
2018-02-21T18:10:00.124Z,15.60
2018-02-21T18:12:27.776Z,15.80
2018-02-21T18:14:55.404Z,15.83
2018-02-21T18:17:23.014Z,17.63
2018-02-21T18:19:50.721Z,18.10
2018-02-21T18:22:18.319Z,16.73
2018-02-21T18:24:45.981Z,17.30
2018-02-21T18:27:13.598Z,16.47
2018-02-21T18:29:41.250Z,16.37
2018-02-21T18:32:08.846Z,17.80
2018-02-21T18:34:36.466Z,16.80
2018-02-21T18:37:04.102Z,16.17
2018-02-21T18:39:31.738Z,16.97
2018-02-21T18:41:59.363Z,20.90
2018-02-21T18:44:26.987Z,32.33
2018-02-21T18:46:54.582Z,32.80
2018-02-21T18:49:22.237Z,21.47
2018-02-21T18:51:49.867Z,18.43
2018-02-21T18:54:17.519Z,19.13
2018-02-21T18:56:45.145Z,16.07
2018-02-21T18:59:12.774Z,17.97
2018-02-21T19:01:40.448Z,17.87
2018-02-21T19:04:08.076Z,18.43
2018-02-21T19:06:35.674Z,18.93
2018-02-21T19:09:03.388Z,15.87
2018-02-21T19:11:31.016Z,15.93
2018-02-21T19:13:58.637Z,16.67
2018-02-21T19:16:26.256Z,16.00
2018-02-21T19:18:53.877Z,17.43
2018-02-21T19:21:21.484Z,17.10
2018-02-21T19:23:49.385Z,18.60
2018-02-21T19:26:16.972Z,17.50
2018-02-21T19:28:44.626Z,18.03
2018-02-21T19:31:12.250Z,19.47
2018-02-21T19:33:39.838Z,18.33
2018-02-21T19:36:07.488Z,16.20
2018-02-21T19:38:35.106Z,14.87
2018-02-21T19:41:02.736Z,16.37
2018-02-21T19:43:30.351Z,15.67
2018-02-21T19:45:58.014Z,17.13
2018-02-21T19:48:25.609Z,17.40
2018-02-21T19:50:53.227Z,15.67
2018-02-21T19:53:20.869Z,16.17
2018-02-21T19:55:48.452Z,41.80
2018-02-21T19:58:16.051Z,25.93
2018-02-21T20:00:43.683Z,19.70
2018-02-21T20:03:11.311Z,16.53
2018-02-21T20:05:38.926Z,17.53
2018-02-21T20:08:06.551Z,17.17
2018-02-21T20:10:34.206Z,17.20
2018-02-21T20:13:01.844Z,16.43
2018-02-21T20:15:29.486Z,14.90
2018-02-21T20:17:57.698Z,14.50
2018-02-21T20:20:25.331Z,16.57
2018-02-21T20:22:52.960Z,27.50
2018-02-21T20:25:20.583Z,38.23
2018-02-21T20:27:48.238Z,17.80
2018-02-21T20:30:15.921Z,15.70
2018-02-21T20:32:43.530Z,14.50
2018-02-21T20:35:11.174Z,15.60
2018-02-21T20:37:38.835Z,15.73
2018-02-21T20:40:06.475Z,18.00
2018-02-21T20:42:34.070Z,16.37
2018-02-21T20:45:01.714Z,16.40
2018-02-21T20:47:29.301Z,17.90
2018-02-21T20:49:56.930Z,17.20
2018-02-21T20:52:24.525Z,13.87
2018-02-21T20:54:52.137Z,16.00
2018-02-21T20:57:19.735Z,18.20
2018-02-21T20:59:47.362Z,17.23
2018-02-21T21:02:14.959Z,15.97
2018-02-21T21:04:42.610Z,18.50
2018-02-21T21:07:10.207Z,16.80
2018-02-21T21:09:37.832Z,19.13
2018-02-21T21:12:05.439Z,17.70
2018-02-21T21:14:33.058Z,17.60
2018-02-21T21:17:00.741Z,18.87
2018-02-21T21:19:28.326Z,17.27
2018-02-21T21:21:55.914Z,19.10
2018-02-21T21:24:23.570Z,18.13
2018-02-21T21:26:51.167Z,18.33
2018-02-21T21:29:18.811Z,20.07
2018-02-21T21:31:46.417Z,19.00
2018-02-21T21:34:14.039Z,18.83
2018-02-21T21:36:41.748Z,16.53
2018-02-21T21:39:09.497Z,19.30
2018-02-21T21:41:37.066Z,17.60
2018-02-21T21:44:04.698Z,16.90
2018-02-21T21:46:32.290Z,19.27
2018-02-21T21:48:59.991Z,15.97
2018-02-21T21:51:27.593Z,19.67
2018-02-21T21:53:55.213Z,17.93
2018-02-21T21:56:22.822Z,18.73
2018-02-21T21:58:50.452Z,17.10
2018-02-21T22:01:18.052Z,18.87
2018-02-21T22:03:45.680Z,18.20
2018-02-21T22:06:13.364Z,18.60
2018-02-21T22:08:40.988Z,19.17
2018-02-21T22:11:08.579Z,17.83
2018-02-21T22:13:36.206Z,16.50
2018-02-21T22:16:03.823Z,18.90
2018-02-21T22:18:31.443Z,19.40
2018-02-21T22:20:59.059Z,17.53
2018-02-21T22:23:26.695Z,19.37
2018-02-21T22:25:54.444Z,19.30
2018-02-21T22:28:22.064Z,16.97
2018-02-21T22:30:49.671Z,18.57
2018-02-21T22:33:17.292Z,19.93
2018-02-21T22:35:44.884Z,17.37
2018-02-21T22:38:12.521Z,18.60
2018-02-21T22:40:40.119Z,19.70
2018-02-21T22:43:07.765Z,17.63
2018-02-21T22:45:35.370Z,17.97
2018-02-21T22:48:02.979Z,18.90
2018-02-21T22:50:30.571Z,19.10
2018-02-21T22:52:58.275Z,19.10
2018-02-21T22:55:25.866Z,22.23
2018-02-21T22:57:53.501Z,19.20
2018-02-21T23:00:21.097Z,18.43
2018-02-21T23:02:48.711Z,17.73
2018-02-21T23:05:16.312Z,20.77
2018-02-21T23:07:43.941Z,18.60
2018-02-21T23:10:11.550Z,19.53
2018-02-21T23:12:39.162Z,18.57
2018-02-21T23:15:06.766Z,21.50
2018-02-21T23:17:34.398Z,19.60
2018-02-21T23:20:01.990Z,18.40
2018-02-21T23:22:29.674Z,17.20
2018-02-21T23:24:57.269Z,19.50
2018-02-21T23:27:24.902Z,19.30
2018-02-21T23:29:52.536Z,20.30
2018-02-21T23:32:20.154Z,20.03
2018-02-21T23:34:47.755Z,20.20
2018-02-21T23:37:15.378Z,19.17
2018-02-21T23:39:42.977Z,19.50
2018-02-21T23:42:10.607Z,19.07
2018-02-21T23:44:38.210Z,19.00
2018-02-21T23:47:05.811Z,18.80
2018-02-21T23:49:33.530Z,21.90
2018-02-21T23:52:01.130Z,20.90
2018-02-21T23:54:28.831Z,24.50
2018-02-21T23:56:56.458Z,19.70
2018-02-21T23:59:24.066Z,20.10
